Time;durP1;ratioP1;P1;durP2;ratioP2;P2;SDS_P1;SDS_P2;PMS_P1;PMS_P2;Temp;Humidity;BMP_temperature;BMP_pressure;BME280_temperature;BME280_humidity;BME280_pressure;Samples;Min_cycle;Max_cycle;Signal;HPM_P1;HPM_P2
2023/10/21 00:04:43;;;;;;;2.20;1.35;;;;;;;13.53;70.04;96894.03;10409606;28;20049;-60
2023/10/21 00:09:45;;;;;;;1.67;1.10;;;;;;;13.65;69.72;96891.75;10427949;28;20060;-60
2023/10/21 00:14:47;;;;;;;1.95;1.00;;;;;;;13.61;69.67;96888.69;10426019;28;20037;-60
2023/10/21 00:19:50;;;;;;;1.27;0.90;;;;;;;13.56;70.07;96890.22;10426600;28;20040;-60
2023/10/21 00:24:52;;;;;;;1.13;0.98;;;;;;;13.51;70.17;96890.78;10428768;28;20489;-60
2023/10/21 00:29:54;;;;;;;1.70;1.20;;;;;;;13.56;69.98;96891.03;10425238;28;20045;-59
2023/10/21 00:34:56;;;;;;;2.67;1.30;;;;;;;13.55;69.90;96884.16;10384784;28;20050;-60
2023/10/21 00:39:58;;;;;;;1.48;1.10;;;;;;;13.48;69.88;96888.50;10386042;28;20041;-59
2023/10/21 00:45:03;;;;;;;1.52;1.13;;;;;;;13.45;70.07;96894.16;10383827;28;20434;-60
2023/10/21 00:50:06;;;;;;;1.58;1.13;;;;;;;13.46;70.09;96898.38;10384870;28;20045;-59
2023/10/21 00:55:10;;;;;;;1.80;1.20;;;;;;;13.42;70.18;96894.50;10385602;28;20051;-60
2023/10/21 01:00:12;;;;;;;2.17;1.27;;;;;;;13.50;70.13;96898.81;10370284;28;20053;-60
2023/10/21 01:05:15;;;;;;;1.38;1.17;;;;;;;13.57;69.79;96897.94;10416502;28;20493;-60
2023/10/21 01:10:17;;;;;;;2.17;0.90;;;;;;;13.68;69.50;96904.50;10382950;28;20060;-60
2023/10/21 01:15:19;;;;;;;1.17;0.90;;;;;;;13.69;69.66;96898.25;10384196;28;20049;-59
2023/10/21 01:20:21;;;;;;;1.10;0.90;;;;;;;13.71;69.53;96904.97;10384505;28;20120;-60
2023/10/21 01:25:24;;;;;;;0.68;0.68;;;;;;;13.75;69.57;96905.41;10381290;28;20076;-60
2023/10/21 01:30:26;;;;;;;1.10;0.90;;;;;;;13.83;69.24;96896.59;10381600;28;20478;-60
2023/10/21 01:35:28;;;;;;;0.80;0.80;;;;;;;13.84;69.13;96909.53;10377984;28;20076;-60
2023/10/21 01:40:30;;;;;;;1.08;0.82;;;;;;;13.82;69.17;96905.50;10383468;28;20049;-60
2023/10/21 01:45:35;;;;;;;0.65;0.65;;;;;;;13.87;68.76;96914.44;10381739;28;20556;-59
2023/10/21 01:50:37;;;;;;;2.08;0.60;;;;;;;13.89;68.93;96922.13;10382386;28;20347;-60
2023/10/21 01:55:39;;;;;;;1.15;0.98;;;;;;;13.80;69.16;96926.66;10382787;28;20045;-59
2023/10/21 02:00:41;;;;;;;0.77;0.77;;;;;;;13.89;68.82;96920.31;10381275;28;20052;-59
2023/10/21 02:05:43;;;;;;;1.23;0.90;;;;;;;13.93;68.77;96928.63;10389684;28;20076;-59
2023/10/21 02:10:45;;;;;;;4.72;1.00;;;;;;;14.01;68.75;96931.16;10388266;28;20072;-59
2023/10/21 02:15:47;;;;;;;0.75;0.70;;;;;;;14.13;68.45;96945.44;10389929;28;20056;-59
2023/10/21 02:20:50;;;;;;;1.55;0.82;;;;;;;14.02;68.58;96944.13;10387853;28;20115;-60
2023/10/21 02:26:03;;;;;;;0.50;0.50;;;;;;;13.88;69.00;96957.28;10389282;28;20045;-59
2023/10/21 02:31:05;;;;;;;1.75;0.85;;;;;;;14.06;68.68;96969.03;10372203;28;20045;-59
2023/10/21 02:36:08;;;;;;;2.85;0.65;;;;;;;14.18;68.56;96978.06;10396300;28;20318;-59
2023/10/21 02:41:10;;;;;;;1.00;0.80;;;;;;;14.12;68.43;96981.44;10447017;28;20041;-59
2023/10/21 02:46:13;;;;;;;1.88;0.95;;;;;;;14.09;68.54;97000.19;10430011;28;20052;-60
2023/10/21 02:51:17;;;;;;;0.60;0.60;;;;;;;13.98;68.92;96994.59;10426823;28;20126;-59
2023/10/21 02:56:19;;;;;;;1.77;0.55;;;;;;;13.99;69.18;96999.66;10397482;28;20052;-59
2023/10/21 03:01:24;;;;;;;0.50;0.50;;;;;;;13.97;69.21;97020.03;10441988;28;20064;-59
2023/10/21 03:06:26;;;;;;;0.45;0.45;;;;;;;13.93;69.64;97042.44;10423829;28;20127;-59
2023/10/21 03:11:29;;;;;;;0.40;0.40;;;;;;;13.83;70.32;97028.75;10437171;28;20455;-60
2023/10/21 03:16:30;;;;;;;0.40;0.40;;;;;;;13.86;70.21;97059.91;10404651;28;20425;-59
2023/10/21 03:21:32;;;;;;;0.28;0.20;;;;;;;13.76;69.81;97102.22;10423839;28;20049;-59
2023/10/21 03:26:34;;;;;;;0.30;0.30;;;;;;;13.82;69.32;97121.69;10425435;28;20493;-59
2023/10/21 03:31:36;;;;;;;1.73;0.50;;;;;;;13.74;68.95;97163.78;10402769;28;20053;-59
2023/10/21 03:36:38;;;;;;;0.20;0.20;;;;;;;13.82;68.84;97181.31;10422639;28;20059;-60
2023/10/21 03:41:40;;;;;;;1.98;0.30;;;;;;;13.72;68.47;97221.75;10398689;28;20123;-60
2023/10/21 03:46:42;;;;;;;0.80;0.30;;;;;;;13.64;68.68;97244.63;10421797;28;20146;-59
2023/10/21 03:51:44;;;;;;;3.97;0.75;;;;;;;13.53;68.77;97280.03;10428506;28;20052;-60
2023/10/21 03:56:46;;;;;;;0.43;0.43;;;;;;;13.57;68.76;97285.72;10429435;28;20052;-60
2023/10/21 04:01:48;;;;;;;0.52;0.40;;;;;;;13.59;68.31;97299.50;10428249;28;20505;-60
2023/10/21 04:06:50;;;;;;;0.32;0.30;;;;;;;13.60;68.43;97320.34;10428436;28;20565;-60
2023/10/21 04:11:53;;;;;;;0.30;0.30;;;;;;;13.59;68.44;97333.66;10410229;28;20049;-60
2023/10/21 04:16:55;;;;;;;0.52;0.30;;;;;;;13.72;68.11;97352.25;10427289;28;20041;-60
2023/10/21 04:21:58;;;;;;;0.65;0.20;;;;;;;13.74;68.30;97379.16;10406976;28;20056;-60
2023/10/21 04:27:00;;;;;;;0.43;0.30;;;;;;;13.84;67.96;97387.66;10410687;28;20037;-60
2023/10/21 04:32:02;;;;;;;0.25;0.25;;;;;;;13.98;67.71;97399.25;10427359;28;20772;-60
2023/10/21 04:37:04;;;;;;;0.22;0.20;;;;;;;14.03;67.49;97415.28;10426556;28;20049;-59
2023/10/21 04:42:06;;;;;;;0.30;0.30;;;;;;;13.97;67.58;97435.22;10427261;28;20077;-60
2023/10/21 04:47:08;;;;;;;0.43;0.43;;;;;;;14.00;67.43;97441.94;10426577;28;20045;-60
2023/10/21 04:52:11;;;;;;;0.63;0.32;;;;;;;14.09;67.35;97443.50;10427458;28;20056;-60
2023/10/21 04:57:14;;;;;;;2.80;0.47;;;;;;;14.08;67.37;97452.41;10407813;28;20515;-60
2023/10/21 05:02:16;;;;;;;0.32;0.30;;;;;;;14.10;66.92;97453.88;10427411;28;20041;-60
2023/10/21 05:07:18;;;;;;;0.70;0.40;;;;;;;13.96;67.32;97465.13;10425274;28;20136;-60
2023/10/21 05:12:20;;;;;;;0.30;0.30;;;;;;;13.91;67.29;97469.22;10426454;28;20052;-60
2023/10/21 05:17:22;;;;;;;0.80;0.45;;;;;;;13.86;67.36;97490.75;10425650;28;20044;-60
2023/10/21 05:22:24;;;;;;;1.20;0.30;;;;;;;13.89;67.22;97500.94;10427570;28;20045;-60
2023/10/21 05:27:26;;;;;;;0.20;0.20;;;;;;;13.94;66.80;97509.16;10426126;28;20057;-60
2023/10/21 05:32:27;;;;;;;0.93;0.45;;;;;;;13.91;66.80;97519.97;10423967;28;20122;-60
2023/10/21 05:37:30;;;;;;;1.75;0.30;;;;;;;13.87;66.97;97533.63;10423209;28;20048;-60
2023/10/21 05:42:32;;;;;;;0.50;0.50;;;;;;;13.87;66.90;97544.97;10425741;28;20779;-60
2023/10/21 05:47:35;;;;;;;0.50;0.50;;;;;;;13.96;66.93;97553.63;10405828;28;20049;-60
2023/10/21 05:52:37;;;;;;;1.40;0.35;;;;;;;13.98;66.90;97576.13;10419809;28;20417;-60
2023/10/21 05:57:39;;;;;;;0.50;0.50;;;;;;;14.09;66.65;97582.81;10418644;28;20037;-60
2023/10/21 06:02:41;;;;;;;2.28;0.45;;;;;;;14.11;66.68;97594.78;10404995;28;20051;-60
2023/10/21 06:07:43;;;;;;;0.68;0.68;;;;;;;14.08;66.54;97604.84;10436737;28;20484;-60
2023/10/21 06:12:46;;;;;;;0.65;0.63;;;;;;;14.00;66.65;97620.63;10422585;28;20037;-60
2023/10/21 06:17:51;;;;;;;1.17;0.85;;;;;;;13.88;66.95;97628.03;10421088;28;20052;-60
2023/10/21 06:22:53;;;;;;;2.47;0.90;;;;;;;13.99;66.96;97643.47;10421628;28;20057;-60
2023/10/21 06:27:54;;;;;;;1.02;0.60;;;;;;;14.19;66.45;97657.84;10423055;28;20449;-60
2023/10/21 06:32:57;;;;;;;3.20;0.70;;;;;;;14.28;66.13;97664.75;10423100;28;20686;-60
2023/10/21 06:37:59;;;;;;;3.65;0.90;;;;;;;14.23;66.64;97674.09;10395437;28;20457;-60
2023/10/21 06:43:01;;;;;;;0.30;0.30;;;;;;;13.99;67.35;97677.63;10422299;28;20439;-60
2023/10/21 06:48:04;;;;;;;0.40;0.40;;;;;;;13.88;67.69;97696.34;10422808;28;20056;-60
2023/10/21 06:53:06;;;;;;;1.98;0.63;;;;;;;13.90;67.65;97704.09;10422660;28;20056;-60
2023/10/21 06:58:09;;;;;;;0.52;0.52;;;;;;;13.98;67.61;97718.03;10420776;28;20189;-60
2023/10/21 07:03:11;;;;;;;0.45;0.32;;;;;;;14.09;67.36;97727.38;10418108;28;20052;-60
2023/10/21 07:08:14;;;;;;;0.88;0.63;;;;;;;14.37;66.70;97739.97;10420776;28;20080;-60
2023/10/21 07:13:16;;;;;;;0.98;0.50;;;;;;;14.47;65.41;97772.16;10399008;28;20049;-60
2023/10/21 07:18:18;;;;;;;1.30;0.55;;;;;;;14.25;64.99;97772.84;10419800;28;20297;-60
2023/10/21 07:23:20;;;;;;;0.20;0.20;;;;;;;14.07;64.43;97774.84;10424866;28;20045;-60
2023/10/21 07:28:22;;;;;;;0.25;0.20;;;;;;;13.90;64.08;97794.25;10428266;28;20052;-60
2023/10/21 07:33:24;;;;;;;2.40;0.47;;;;;;;13.87;63.72;97807.72;10425341;28;20053;-60
2023/10/21 07:38:26;;;;;;;1.17;0.50;;;;;;;13.86;63.36;97811.31;10426800;28;20515;-60
2023/10/21 07:43:28;;;;;;;0.40;0.40;;;;;;;13.88;63.15;97813.78;10430131;28;20651;-60
2023/10/21 07:48:31;;;;;;;2.13;0.60;;;;;;;13.90;62.79;97825.78;10428903;28;20553;-61
2023/10/21 07:53:34;;;;;;;1.20;0.50;;;;;;;13.98;62.65;97827.59;10425670;28;20698;-61
2023/10/21 07:58:38;;;;;;;1.95;0.30;;;;;;;14.09;61.69;97824.63;10428272;28;20041;-61
2023/10/21 08:03:40;;;;;;;1.73;0.40;;;;;;;14.29;60.75;97846.94;10428026;28;20409;-61
2023/10/21 08:08:42;;;;;;;0.65;0.30;;;;;;;14.44;58.97;97863.72;10427317;28;20092;-61
2023/10/21 08:13:44;;;;;;;1.05;0.70;;;;;;;14.68;59.38;97870.78;10428826;28;20502;-61
2023/10/21 08:18:46;;;;;;;0.60;0.22;;;;;;;14.52;58.04;97871.63;10426187;28;20041;-61
2023/10/21 08:23:48;;;;;;;1.88;0.40;;;;;;;14.34;59.45;97892.84;10429454;28;20126;-61
2023/10/21 08:28:50;;;;;;;0.57;0.30;;;;;;;14.54;58.27;97895.97;10427031;28;20048;-60
2023/10/21 08:33:52;;;;;;;0.65;0.45;;;;;;;14.63;58.13;97897.63;10427243;28;20036;-60
2023/10/21 08:38:56;;;;;;;0.32;0.20;;;;;;;14.74;57.52;97920.09;10407234;28;20043;-61
2023/10/21 08:43:58;;;;;;;0.63;0.30;;;;;;;14.89;57.36;97926.34;10426870;28;20036;-61
2023/10/21 08:49:03;;;;;;;1.10;0.47;;;;;;;15.14;56.66;97938.47;10442608;28;20049;-61
2023/10/21 08:54:06;;;;;;;0.52;0.30;;;;;;;15.17;55.53;97938.97;10425394;28;20424;-61
2023/10/21 08:59:09;;;;;;;2.35;0.52;;;;;;;15.21;55.42;97940.25;10428329;28;20048;-60
2023/10/21 09:04:12;;;;;;;2.00;0.45;;;;;;;14.96;55.87;97958.94;10405847;28;20044;-61
2023/10/21 09:09:23;;;;;;;0.85;0.68;;;;;;;14.91;55.34;97966.47;10425867;28;20057;-61
2023/10/21 09:14:25;;;;;;;0.75;0.35;;;;;;;15.12;55.95;97977.31;10426121;28;20755;-61
2023/10/21 09:19:27;;;;;;;0.55;0.40;;;;;;;15.17;55.74;97991.63;10407281;28;20033;-61
2023/10/21 09:24:28;;;;;;;1.30;0.50;;;;;;;15.11;55.36;97996.72;10405923;28;20238;-61
2023/10/21 09:29:30;;;;;;;0.30;0.30;;;;;;;15.16;55.73;98011.03;10425887;28;20051;-61
2023/10/21 09:34:33;;;;;;;0.93;0.30;;;;;;;15.28;54.92;98012.34;10425756;28;20043;-61
2023/10/21 09:39:36;;;;;;;0.65;0.50;;;;;;;15.58;54.67;98018.72;10423464;28;20119;-61
2023/10/21 09:44:41;;;;;;;0.82;0.28;;;;;;;15.97;54.79;98024.84;10421268;28;20025;-61
2023/10/21 09:49:45;;;;;;;2.22;0.60;;;;;;;16.25;53.31;98025.19;10414382;28;20764;-61
2023/10/21 09:54:55;;;;;;;1.02;0.63;;;;;;;16.15;52.41;98024.59;10418230;28;20049;-61
2023/10/21 09:59:59;;;;;;;1.55;0.40;;;;;;;15.93;52.98;98031.47;10423906;28;20067;-61
2023/10/21 10:05:08;;;;;;;0.98;0.63;;;;;;;15.76;52.36;98034.31;10420411;28;20417;-61
2023/10/21 10:10:13;;;;;;;3.22;0.70;;;;;;;15.84;53.60;98043.00;10405854;28;20220;-61
2023/10/21 10:15:28;;;;;;;2.05;0.40;;;;;;;15.97;52.54;98045.94;10421182;28;20106;-61
2023/10/21 10:20:31;;;;;;;0.38;0.38;;;;;;;15.90;53.40;98055.50;10415815;28;20040;-61
2023/10/21 10:25:38;;;;;;;1.88;0.63;;;;;;;15.71;52.78;98055.09;10411853;28;20051;-61
2023/10/21 10:30:44;;;;;;;0.45;0.45;;;;;;;15.41;53.38;98069.75;10403306;28;20428;-61
2023/10/21 10:35:50;;;;;;;0.40;0.40;;;;;;;15.12;51.60;98066.84;10391906;28;20131;-61
2023/10/21 10:41:07;;;;;;;2.45;0.60;;;;;;;15.32;51.40;98084.78;10395851;28;20130;-61
2023/10/21 10:46:12;;;;;;;1.92;0.60;;;;;;;15.27;52.57;98087.06;10411482;28;20033;-61
2023/10/21 10:51:27;;;;;;;0.45;0.25;;;;;;;15.33;52.92;98089.03;10399070;28;20425;-61
2023/10/21 10:56:44;;;;;;;1.38;0.60;;;;;;;15.53;51.17;98097.44;10421802;28;20124;-61
2023/10/21 11:01:57;;;;;;;1.80;0.65;;;;;;;15.89;51.10;98095.25;10427010;28;20048;-61
2023/10/21 11:07:03;;;;;;;0.52;0.40;;;;;;;16.34;51.29;98099.84;10412798;28;20044;-61
2023/10/21 11:12:05;;;;;;;1.42;0.47;;;;;;;16.83;50.76;98080.13;10424081;28;20041;-61
2023/10/21 11:17:12;;;;;;;0.30;0.30;;;;;;;17.03;50.07;98076.03;10422358;28;20515;-61
2023/10/21 11:22:28;;;;;;;0.68;0.50;;;;;;;16.85;48.96;98078.13;10405974;28;20342;-61
2023/10/21 11:27:31;;;;;;;3.13;0.82;;;;;;;16.69;48.89;98072.97;10410506;28;20424;-61
2023/10/21 11:32:35;;;;;;;0.98;0.55;;;;;;;16.76;49.82;98080.00;10397156;28;20084;-61
2023/10/21 11:37:40;;;;;;;4.18;1.20;;;;;;;16.73;49.32;98082.19;10417860;28;20044;-61
2023/10/21 11:42:57;;;;;;;0.95;0.38;;;;;;;16.59;47.52;98090.84;10422620;28;20693;-61
2023/10/21 11:48:08;;;;;;;1.60;0.65;;;;;;;16.65;48.61;98090.16;10441261;28;20386;-61
2023/10/21 11:53:12;;;;;;;2.05;0.50;;;;;;;17.12;48.56;98101.34;10407359;28;20134;-60
2023/10/21 12:40:43;;;;;;;3.17;0.90;;;;;;;18.00;46.63;98120.06;10423009;28;20077;-61
2023/10/21 12:45:46;;;;;;;3.13;1.08;;;;;;;17.88;46.19;98129.44;10422355;28;20417;-61
2023/10/21 12:56:14;;;;;;;5.38;1.38;;;;;;;17.43;47.13;98125.06;10330311;28;20125;-61
2023/10/21 13:01:19;;;;;;;1.25;0.75;;;;;;;17.44;47.03;98137.31;10329201;28;20482;-61
2023/10/21 13:06:21;;;;;;;0.65;0.50;;;;;;;17.60;46.91;98140.63;10329308;28;20073;-61
2023/10/21 13:11:23;;;;;;;2.90;0.80;;;;;;;17.62;46.30;98136.00;10329196;28;20030;-61
2023/10/21 13:16:28;;;;;;;2.47;1.10;;;;;;;17.93;45.94;98142.97;10327878;28;20051;-61
2023/10/21 13:21:32;;;;;;;0.85;0.65;;;;;;;17.75;44.07;98135.38;10313428;28;20694;-61
2023/10/21 13:26:34;;;;;;;2.40;0.73;;;;;;;17.75;44.85;98157.34;10329933;28;20576;-61
2023/10/21 13:31:37;;;;;;;3.85;1.02;;;;;;;18.04;41.83;98153.91;10309640;28;20061;-62
2023/10/21 13:36:39;;;;;;;3.85;0.90;;;;;;;18.22;43.91;98159.69;10311984;28;20128;-61
2023/10/21 13:41:45;;;;;;;2.70;1.00;;;;;;;17.96;43.17;98161.94;10325119;28;20050;-61
2023/10/21 13:46:47;;;;;;;2.30;1.02;;;;;;;17.84;44.05;98177.44;10328858;28;20046;-61
2023/10/21 13:51:51;;;;;;;2.80;0.93;;;;;;;17.62;44.37;98170.34;10309257;28;20108;-61
2023/10/21 13:56:53;;;;;;;4.53;1.27;;;;;;;17.45;44.47;98183.88;10329341;28;20042;-61
2023/10/21 14:01:56;;;;;;;1.27;0.68;;;;;;;17.54;43.68;98185.47;10308192;28;20042;-61
2023/10/21 14:06:58;;;;;;;2.13;0.80;;;;;;;17.51;44.86;98176.06;10303588;28;20518;-61
2023/10/21 14:12:00;;;;;;;1.27;0.70;;;;;;;17.54;45.19;98188.94;10299563;28;20046;-61
2023/10/21 14:17:03;;;;;;;1.63;0.60;;;;;;;17.30;44.80;98196.97;10298066;28;20038;-61
2023/10/21 14:22:06;;;;;;;2.17;0.90;;;;;;;17.34;44.96;98200.97;10299637;28;20410;-61
2023/10/21 14:27:09;;;;;;;1.48;0.70;;;;;;;17.43;44.92;98212.28;10293190;28;20118;-61
2023/10/21 14:32:11;;;;;;;3.13;0.88;;;;;;;17.60;44.82;98219.94;10297305;28;20744;-61
2023/10/21 14:37:13;;;;;;;3.47;1.08;;;;;;;17.32;44.40;98218.81;10294719;28;20042;-61
2023/10/21 14:42:16;;;;;;;1.67;0.70;;;;;;;17.34;45.27;98216.00;10298047;28;20043;-61
2023/10/21 14:47:22;;;;;;;2.08;1.00;;;;;;;17.24;45.26;98226.75;10295379;28;20050;-59
2023/10/21 14:52:24;;;;;;;2.60;1.02;;;;;;;17.29;45.57;98235.00;10293764;28;20192;-59
2023/10/21 14:57:26;;;;;;;3.05;0.70;;;;;;;17.44;45.69;98232.44;10279118;28;20076;-59
2023/10/21 15:02:29;;;;;;;3.53;0.68;;;;;;;17.82;45.07;98234.97;10296337;28;20046;-59
2023/10/21 15:07:31;;;;;;;0.85;0.50;;;;;;;17.95;45.15;98226.44;10298786;28;20070;-59
2023/10/21 15:12:32;;;;;;;2.10;1.05;;;;;;;17.71;45.17;98234.53;10298024;28;20053;-59
2023/10/21 15:17:34;;;;;;;1.33;0.80;;;;;;;17.37;46.21;98244.72;10275755;28;20387;-59
2023/10/21 15:22:37;;;;;;;1.13;0.68;;;;;;;17.07;46.49;98241.06;10275397;28;20414;-59
2023/10/21 15:27:44;;;;;;;4.40;1.05;;;;;;;16.95;46.83;98239.81;10296610;28;20042;-59
2023/10/21 15:32:47;;;;;;;1.13;0.82;;;;;;;16.74;47.39;98250.94;10296737;28;20495;-59
2023/10/21 15:37:50;;;;;;;1.38;0.98;;;;;;;16.37;48.00;98253.34;10271539;28;20119;-59
2023/10/21 15:42:52;;;;;;;1.38;0.82;;;;;;;16.05;48.83;98259.50;10270549;28;20141;-59
2023/10/21 15:47:57;;;;;;;2.33;0.88;;;;;;;15.68;49.15;98267.09;10289487;28;20513;-59
2023/10/21 15:52:59;;;;;;;2.72;0.70;;;;;;;15.34;49.79;98269.81;10292574;28;20698;-59
2023/10/21 15:58:01;;;;;;;2.05;0.90;;;;;;;15.21;50.54;98274.72;10287556;28;20502;-59
2023/10/21 16:03:05;;;;;;;1.67;1.00;;;;;;;15.08;51.35;98291.97;10289685;28;20042;-59
2023/10/21 16:08:07;;;;;;;3.78;1.10;;;;;;;14.96;51.59;98298.50;10285444;28;20042;-59
2023/10/21 16:13:09;;;;;;;2.80;1.08;;;;;;;14.95;51.55;98299.47;10293108;28;20072;-59
2023/10/21 16:18:11;;;;;;;1.95;0.77;;;;;;;14.86;52.04;98295.16;10290174;28;20038;-59
2023/10/21 16:23:13;;;;;;;5.78;1.45;;;;;;;14.75;52.19;98298.06;10289048;28;20050;-59
2023/10/21 16:28:15;;;;;;;2.15;1.10;;;;;;;14.73;52.46;98303.50;10361011;28;20043;-59
2023/10/21 16:33:17;;;;;;;1.90;0.88;;;;;;;14.68;52.91;98302.28;10287414;28;20057;-59
2023/10/21 16:38:20;;;;;;;2.88;1.50;;;;;;;14.57;53.12;98312.09;10270070;28;20056;-59
2023/10/21 16:43:22;;;;;;;3.20;1.33;;;;;;;14.43;52.93;98317.91;10292010;28;20046;-59
2023/10/21 16:48:24;;;;;;;6.07;1.10;;;;;;;14.31;52.64;98329.66;10277225;28;20413;-59
2023/10/21 16:53:26;;;;;;;2.28;1.27;;;;;;;14.19;52.80;98323.00;10291461;28;20517;-59
2023/10/21 16:58:28;;;;;;;2.38;1.23;;;;;;;14.02;53.43;98334.38;10279152;28;20054;-59
2023/10/21 17:03:30;;;;;;;6.03;1.90;;;;;;;13.81;53.71;98344.38;10294427;28;20066;-59
2023/10/21 17:08:35;;;;;;;4.13;1.00;;;;;;;13.69;53.71;98354.28;10279171;28;20047;-59
2023/10/21 17:13:38;;;;;;;2.03;1.33;;;;;;;13.69;53.77;98362.16;10295490;28;20054;-59
2023/10/21 17:18:41;;;;;;;2.33;0.93;;;;;;;13.67;53.93;98376.41;10294560;28;20065;-59
2023/10/21 17:23:43;;;;;;;1.75;0.95;;;;;;;13.64;54.15;98384.59;10295346;28;20108;-59
2023/10/21 17:28:47;;;;;;;2.35;1.00;;;;;;;13.79;53.41;98383.09;10295569;28;20053;-59
2023/10/21 17:33:49;;;;;;;4.47;0.93;;;;;;;13.87;53.27;98393.69;10288568;28;20050;-59
2023/10/21 17:38:53;;;;;;;4.75;1.55;;;;;;;13.85;53.06;98403.53;10281859;28;20053;-59
2023/10/21 17:43:55;;;;;;;3.42;0.95;;;;;;;13.69;53.16;98413.88;10283461;28;20100;-59
2023/10/21 17:48:57;;;;;;;1.80;0.90;;;;;;;13.59;54.23;98407.84;10291293;28;20096;-59
2023/10/21 17:54:01;;;;;;;2.22;0.90;;;;;;;13.52;54.78;98407.59;10301951;28;20486;-59
2023/10/21 17:59:05;;;;;;;2.22;1.17;;;;;;;13.49;55.26;98407.09;10301474;28;20041;-59
2023/10/21 18:04:07;;;;;;;2.17;1.40;;;;;;;13.50;54.91;98417.44;10298540;28;20054;-59
2023/10/21 18:09:11;;;;;;;3.05;1.38;;;;;;;13.47;54.82;98412.50;10291629;28;20046;-59
2023/10/21 18:14:14;;;;;;;2.17;1.00;;;;;;;13.44;54.32;98412.78;10299560;28;20046;-59
2023/10/21 18:19:16;;;;;;;5.30;1.02;;;;;;;13.54;54.21;98418.78;10299426;28;20043;-58
2023/10/21 18:24:18;;;;;;;1.58;0.80;;;;;;;13.62;54.06;98415.44;10298740;28;20058;-59
2023/10/21 18:29:20;;;;;;;3.92;0.90;;;;;;;13.72;53.92;98418.81;10284003;28;20446;-58
2023/10/21 18:34:22;;;;;;;2.53;1.08;;;;;;;13.84;53.47;98409.75;10301937;28;20050;-58
2023/10/21 18:39:24;;;;;;;1.25;0.70;;;;;;;13.94;53.62;98412.34;10302041;28;20047;-58
2023/10/21 18:44:26;;;;;;;3.10;1.05;;;;;;;13.94;53.15;98407.06;10295942;28;20782;-58
2023/10/21 18:49:28;;;;;;;1.23;0.88;;;;;;;13.97;52.94;98412.84;10293795;28;20046;-58
2023/10/21 18:54:30;;;;;;;2.58;0.70;;;;;;;13.98;52.82;98414.53;10293260;28;20426;-58
2023/10/21 18:59:35;;;;;;;4.38;1.35;;;;;;;14.10;52.38;98421.22;10294056;28;20147;-58
2023/10/21 19:04:38;;;;;;;4.40;1.10;;;;;;;14.13;52.42;98422.69;10245967;28;20180;-58
2023/10/21 19:09:42;;;;;;;1.75;0.77;;;;;;;14.21;52.35;98431.47;10295227;28;20049;-58
2023/10/21 19:14:47;;;;;;;2.55;0.85;;;;;;;14.16;51.85;98425.88;10293609;28;20632;-58
2023/10/21 19:19:50;;;;;;;1.42;0.77;;;;;;;14.06;52.12;98435.63;10273875;28;20116;-58
2023/10/21 19:24:52;;;;;;;3.13;1.17;;;;;;;13.97;52.30;98441.75;10274837;28;20529;-58
2023/10/21 19:29:54;;;;;;;3.92;0.68;;;;;;;13.80;52.48;98445.19;10293211;28;20056;-58
2023/10/21 19:34:56;;;;;;;1.17;0.70;;;;;;;13.65;52.75;98455.38;10293496;28;20414;-58
2023/10/21 19:39:58;;;;;;;2.95;0.75;;;;;;;13.46;53.05;98465.13;10292032;28;20042;-58
2023/10/21 19:45:00;;;;;;;1.58;0.70;;;;;;;13.42;53.22;98467.25;10291963;28;20069;-58
2023/10/21 19:50:03;;;;;;;0.88;0.68;;;;;;;13.43;53.03;98470.69;10296728;28;20521;-58
2023/10/21 19:55:07;;;;;;;1.67;0.80;;;;;;;13.51;52.99;98489.19;10297423;28;20046;-60
2023/10/21 20:00:11;;;;;;;0.85;0.80;;;;;;;13.65;52.99;98496.59;10280193;28;20040;-60
2023/10/21 20:05:16;;;;;;;2.70;0.80;;;;;;;13.65;53.08;98493.97;10291176;28;20691;-60
2023/10/21 20:10:20;;;;;;;1.17;0.60;;;;;;;13.67;53.08;98489.38;10294961;28;20050;-60
2023/10/21 20:15:22;;;;;;;3.80;1.10;;;;;;;13.64;52.88;98492.28;10294853;28;20541;-60
2023/10/21 20:20:24;;;;;;;1.30;0.88;;;;;;;13.71;53.11;98501.25;10294457;28;20095;-60
2023/10/21 20:25:26;;;;;;;3.75;0.68;;;;;;;13.73;52.77;98504.56;10276949;28;20076;-60
2023/10/21 20:30:28;;;;;;;3.60;1.10;;;;;;;13.73;52.84;98502.78;10292363;28;20042;-60
2023/10/21 20:35:30;;;;;;;1.80;0.57;;;;;;;13.69;52.47;98503.19;10292899;28;20058;-60
2023/10/21 20:40:36;;;;;;;3.55;1.08;;;;;;;13.65;52.52;98507.09;10291371;28;20045;-58
2023/10/21 20:45:38;;;;;;;3.83;1.00;;;;;;;13.56;52.93;98523.72;10295654;28;20066;-58
2023/10/21 20:50:41;;;;;;;2.78;0.93;;;;;;;13.62;52.90;98507.38;10292376;28;20061;-58
2023/10/21 20:55:43;;;;;;;1.75;0.80;;;;;;;13.63;52.51;98524.81;10294548;28;20460;-58
2023/10/21 21:00:45;;;;;;;1.70;0.98;;;;;;;13.72;52.26;98526.53;10294875;28;20418;-58
2023/10/21 21:05:47;;;;;;;1.58;0.73;;;;;;;13.64;52.45;98534.31;10291622;28;20035;-58
2023/10/21 21:10:49;;;;;;;2.38;0.90;;;;;;;13.55;52.56;98548.34;10294858;28;20498;-58
2023/10/21 21:15:51;;;;;;;6.35;1.13;;;;;;;13.35;53.03;98547.50;10297909;28;20062;-58
2023/10/21 21:20:58;;;;;;;2.40;0.77;;;;;;;13.27;52.57;98546.59;10297849;28;20084;-59
2023/10/21 21:26:02;;;;;;;1.48;0.52;;;;;;;13.22;53.10;98551.44;10300735;28;20038;-58
2023/10/21 21:31:04;;;;;;;1.05;0.82;;;;;;;13.24;52.74;98539.00;10294437;28;20046;-58
2023/10/21 21:36:07;;;;;;;2.88;1.10;;;;;;;13.24;52.93;98547.69;10299622;28;20498;-58
2023/10/21 21:41:13;;;;;;;5.50;1.08;;;;;;;13.12;53.01;98542.75;10278027;28;20418;-58
2023/10/21 21:46:19;;;;;;;1.77;0.82;;;;;;;13.05;53.12;98541.66;10300857;28;20039;-58
2023/10/21 21:51:21;;;;;;;1.38;0.68;;;;;;;13.01;53.10;98548.97;10300372;28;20047;-57
2023/10/21 21:56:24;;;;;;;2.33;0.70;;;;;;;13.01;53.33;98548.97;10276711;28;20134;-58
2023/10/21 22:01:28;;;;;;;0.73;0.73;;;;;;;12.95;53.02;98545.13;10299732;28;20669;-58
2023/10/21 22:06:30;;;;;;;1.25;0.68;;;;;;;12.92;53.08;98547.19;10297771;28;20050;-58
2023/10/21 22:11:33;;;;;;;0.63;0.55;;;;;;;13.02;52.86;98549.81;10299880;28;20058;-58
2023/10/21 22:16:36;;;;;;;1.33;0.60;;;;;;;13.00;52.75;98551.75;10288657;28;20576;-58
2023/10/21 22:21:38;;;;;;;2.00;0.80;;;;;;;13.00;52.79;98551.75;10301576;28;20042;-57
2023/10/21 22:26:46;;;;;;;3.75;1.15;;;;;;;12.84;53.12;98553.13;10301195;28;20050;-58
2023/10/21 22:31:48;;;;;;;1.92;0.77;;;;;;;12.86;52.94;98556.44;10299443;28;20057;-58
2023/10/21 22:36:51;;;;;;;2.30;0.70;;;;;;;12.87;53.05;98555.50;10313222;28;20038;-58
2023/10/21 22:41:53;;;;;;;2.90;0.77;;;;;;;12.76;53.05;98553.00;10299046;28;20423;-58
2023/10/21 22:46:57;;;;;;;2.83;1.15;;;;;;;12.78;52.96;98563.38;10298383;28;20619;-58
2023/10/21 22:51:59;;;;;;;2.45;0.88;;;;;;;12.77;53.06;98566.94;10297595;28;20499;-58
2023/10/21 22:57:01;;;;;;;2.47;1.08;;;;;;;12.76;53.12;98567.94;10280977;28;20422;-58
2023/10/21 23:02:03;;;;;;;4.50;1.33;;;;;;;12.72;52.95;98579.66;10297271;28;20377;-57
2023/10/21 23:07:08;;;;;;;1.77;0.80;;;;;;;12.67;53.27;98579.22;10296349;28;20421;-57
2023/10/21 23:12:11;;;;;;;1.65;0.68;;;;;;;12.71;53.07;98599.81;10279281;28;20042;-57
2023/10/21 23:17:14;;;;;;;3.35;0.70;;;;;;;12.69;53.07;98603.53;10298399;28;20058;-58
2023/10/21 23:22:16;;;;;;;1.75;0.93;;;;;;;12.62;53.15;98605.88;10297097;28;20050;-58
2023/10/21 23:27:17;;;;;;;3.08;1.00;;;;;;;12.64;53.35;98603.94;10295954;28;20536;-58
2023/10/21 23:32:19;;;;;;;3.85;0.80;;;;;;;12.56;53.48;98597.72;10278368;28;20038;-58
2023/10/21 23:37:21;;;;;;;3.83;0.80;;;;;;;12.53;53.55;98598.84;10294857;28;20545;-58
2023/10/21 23:42:26;;;;;;;2.55;0.70;;;;;;;12.48;53.77;98595.78;10298732;28;20286;-58
2023/10/21 23:47:28;;;;;;;1.42;0.80;;;;;;;12.44;54.00;98602.25;10297879;28;20499;-58
2023/10/21 23:52:30;;;;;;;1.17;1.00;;;;;;;12.34;54.50;98606.66;10295555;28;20094;-58
2023/10/21 23:57:32;;;;;;;2.83;0.65;;;;;;;12.34;54.22;98617.13;10297336;28;20051;-57
